N624ML SCQP-SCSE
Flight info
| Callsign | N624ML |
|---|---|
| Flight time | 2h 11m |
| Altitude | 20000 |
| Route | PUPA2J PUPAR Q810 EROLO Q802 ANDAK RNPX30 |
| Aircraft | PC12/L-G/C |
Departure
| Time | 2026-04-29 22:17 |
|---|---|
| Airport | La Araucanía International Airport (SCQP) |
Arrival
| Time | 2026-04-30 00:29 |
|---|---|
| Airport | La Florida Airport (SCSE) |
| Time | Latitude | Longitude | Altitude | Speed | Heading |
|---|---|---|---|---|---|
| 2026-04-29 22:07 | -38.92631 | -72.64716 | 334 ft | 0 kts | 107° |
| 2026-04-29 22:12 | -38.92632 | -72.64715 | 334 ft | 0 kts | 100° |
| 2026-04-29 22:12 | -38.92616 | -72.64738 | 334 ft | 7 kts | 298° |
| 2026-04-29 22:12 | -38.92604 | -72.64815 | 333 ft | 10 kts | 265° |
| 2026-04-29 22:13 | -38.92661 | -72.64862 | 335 ft | 10 kts | 189° |
| 2026-04-29 22:13 | -38.92728 | -72.64886 | 338 ft | 9 kts | 203° |
| 2026-04-29 22:13 | -38.92789 | -72.64914 | 340 ft | 9 kts | 198° |
| 2026-04-29 22:13 | -38.92849 | -72.64939 | 343 ft | 8 kts | 198° |
| 2026-04-29 22:14 | -38.92892 | -72.64994 | 342 ft | 10 kts | 255° |
| 2026-04-29 22:14 | -38.92870 | -72.65089 | 340 ft | 12 kts | 290° |
| 2026-04-29 22:14 | -38.92863 | -72.65122 | 340 ft | 0 kts | 286° |
| 2026-04-29 22:15 | -38.92860 | -72.65134 | 340 ft | 4 kts | 285° |
| 2026-04-29 22:16 | -38.92833 | -72.65207 | 338 ft | 13 kts | 318° |
| 2026-04-29 22:16 | -38.92761 | -72.65227 | 338 ft | 0 kts | 14° |
| 2026-04-29 22:16 | -38.92746 | -72.65222 | 337 ft | 23 kts | 13° |
| 2026-04-29 22:16 | -38.92261 | -72.65027 | 354 ft | 108 kts | 17° |
| 2026-04-29 22:17 | -38.91445 | -72.64720 | 686 ft | 132 kts | 15° |
| 2026-04-29 22:17 | -38.90509 | -72.64372 | 1050 ft | 151 kts | 16° |
| 2026-04-29 22:17 | -38.89425 | -72.63953 | 1425 ft | 170 kts | 16° |
| 2026-04-29 22:17 | -38.88248 | -72.63512 | 1814 ft | 183 kts | 16° |
| 2026-04-29 22:18 | -38.87003 | -72.63055 | 2199 ft | 192 kts | 16° |
| 2026-04-29 22:18 | -38.85697 | -72.62578 | 2582 ft | 197 kts | 16° |
| 2026-04-29 22:18 | -38.84367 | -72.62097 | 2963 ft | 199 kts | 16° |
| 2026-04-29 22:18 | -38.82999 | -72.62048 | 3361 ft | 201 kts | 338° |
| 2026-04-29 22:19 | -38.81804 | -72.62983 | 3757 ft | 200 kts | 329° |
| 2026-04-29 22:19 | -38.80586 | -72.63803 | 4130 ft | 201 kts | 334° |
| 2026-04-29 22:19 | -38.79311 | -72.64525 | 4508 ft | 200 kts | 336° |
| 2026-04-29 22:19 | -38.78021 | -72.65200 | 4891 ft | 200 kts | 336° |
| 2026-04-29 22:20 | -38.76725 | -72.65859 | 5277 ft | 199 kts | 336° |
| 2026-04-29 22:20 | -38.75443 | -72.66505 | 5651 ft | 197 kts | 336° |
| 2026-04-29 22:20 | -38.74183 | -72.67138 | 6022 ft | 196 kts | 335° |
| 2026-04-29 22:20 | -38.72916 | -72.67774 | 6396 ft | 195 kts | 335° |
| 2026-04-29 22:21 | -38.71664 | -72.68401 | 6771 ft | 193 kts | 335° |
| 2026-04-29 22:21 | -38.70408 | -72.69033 | 7150 ft | 192 kts | 334° |
| 2026-04-29 22:21 | -38.69175 | -72.69650 | 7528 ft | 190 kts | 334° |
| 2026-04-29 22:21 | -38.67936 | -72.70275 | 7905 ft | 193 kts | 334° |
| 2026-04-29 22:22 | -38.66690 | -72.70902 | 8280 ft | 195 kts | 333° |
| 2026-04-29 22:22 | -38.65424 | -72.71535 | 8654 ft | 197 kts | 333° |
| 2026-04-29 22:22 | -38.64154 | -72.72173 | 9029 ft | 197 kts | 333° |
| 2026-04-29 22:22 | -38.62857 | -72.72819 | 9411 ft | 198 kts | 332° |
| 2026-04-29 22:23 | -38.61591 | -72.73454 | 9776 ft | 198 kts | 332° |
| 2026-04-29 22:23 | -38.60305 | -72.74097 | 10149 ft | 198 kts | 332° |
| 2026-04-29 22:23 | -38.59026 | -72.74737 | 10520 ft | 197 kts | 332° |
| 2026-04-29 22:23 | -38.57740 | -72.75381 | 10904 ft | 197 kts | 332° |
| 2026-04-29 22:24 | -38.56482 | -72.76006 | 11279 ft | 196 kts | 331° |
| 2026-04-29 22:24 | -38.55201 | -72.76646 | 11657 ft | 195 kts | 331° |
| 2026-04-29 22:24 | -38.53942 | -72.77276 | 12030 ft | 194 kts | 330° |
| 2026-04-29 22:24 | -38.52703 | -72.77895 | 12397 ft | 193 kts | 330° |
| 2026-04-29 22:25 | -38.51458 | -72.78518 | 12773 ft | 192 kts | 330° |
| 2026-04-29 22:25 | -38.50190 | -72.79063 | 13127 ft | 199 kts | 344° |
| 2026-04-29 22:25 | -38.48779 | -72.78951 | 13494 ft | 207 kts | 359° |
| 2026-04-29 22:25 | -38.47360 | -72.78613 | 13865 ft | 208 kts | 1° |
| 2026-04-29 22:26 | -38.45934 | -72.78253 | 14228 ft | 208 kts | 0° |
| 2026-04-29 22:26 | -38.44527 | -72.77902 | 14573 ft | 207 kts | 0° |
| 2026-04-29 22:26 | -38.43118 | -72.77554 | 14929 ft | 207 kts | 359° |
| 2026-04-29 22:26 | -38.41704 | -72.77205 | 15292 ft | 206 kts | 359° |
| 2026-04-29 22:27 | -38.40300 | -72.76859 | 15663 ft | 206 kts | 358° |
| 2026-04-29 22:27 | -38.38875 | -72.76511 | 15976 ft | 208 kts | 358° |
| 2026-04-29 22:27 | -38.37431 | -72.76162 | 16222 ft | 213 kts | 358° |
| 2026-04-29 22:27 | -38.35973 | -72.75807 | 16454 ft | 218 kts | 358° |
| 2026-04-29 22:28 | -38.34468 | -72.75440 | 16693 ft | 221 kts | 358° |
| 2026-04-29 22:28 | -38.32943 | -72.75066 | 16929 ft | 224 kts | 358° |
| 2026-04-29 22:28 | -38.31402 | -72.74687 | 17166 ft | 226 kts | 358° |
| 2026-04-29 22:28 | -38.29870 | -72.74310 | 17405 ft | 227 kts | 357° |
| 2026-04-29 22:29 | -38.28316 | -72.73929 | 17649 ft | 229 kts | 357° |
| 2026-04-29 22:29 | -38.26745 | -72.73543 | 17887 ft | 229 kts | 357° |
| 2026-04-29 22:29 | -38.25177 | -72.73159 | 18132 ft | 230 kts | 356° |
| 2026-04-29 22:29 | -38.23593 | -72.72773 | 18373 ft | 230 kts | 356° |
| 2026-04-29 22:30 | -38.22027 | -72.72392 | 18615 ft | 231 kts | 356° |
| 2026-04-29 22:30 | -38.20459 | -72.72008 | 18855 ft | 230 kts | 356° |
| 2026-04-29 22:30 | -38.18877 | -72.71622 | 19096 ft | 230 kts | 356° |
| 2026-04-29 22:30 | -38.17308 | -72.71238 | 19335 ft | 230 kts | 356° |
| 2026-04-29 22:31 | -38.15758 | -72.70860 | 19577 ft | 229 kts | 356° |
| 2026-04-29 22:31 | -38.14193 | -72.70476 | 19820 ft | 229 kts | 356° |
| 2026-04-29 22:31 | -38.12618 | -72.70094 | 20033 ft | 230 kts | 356° |
| 2026-04-29 22:31 | -38.11021 | -72.69714 | 20058 ft | 240 kts | 356° |
| 2026-04-29 22:32 | -38.09343 | -72.69316 | 20069 ft | 249 kts | 357° |
| 2026-04-29 22:32 | -38.07601 | -72.68893 | 20065 ft | 256 kts | 357° |
| 2026-04-29 22:32 | -38.05823 | -72.68460 | 20055 ft | 261 kts | 358° |
| 2026-04-29 22:32 | -38.04022 | -72.68019 | 20065 ft | 265 kts | 358° |
| 2026-04-29 22:33 | -38.02195 | -72.67572 | 20057 ft | 268 kts | 358° |
| 2026-04-29 22:33 | -38.00376 | -72.67127 | 20055 ft | 270 kts | 358° |
| 2026-04-29 22:33 | -37.98514 | -72.66673 | 20052 ft | 272 kts | 359° |
| 2026-04-29 22:33 | -37.96640 | -72.66217 | 20053 ft | 273 kts | 358° |
| 2026-04-29 22:34 | -37.94773 | -72.65762 | 20052 ft | 274 kts | 358° |
| 2026-04-29 22:34 | -37.92910 | -72.65311 | 20052 ft | 274 kts | 359° |
| 2026-04-29 22:34 | -37.91020 | -72.64851 | 20051 ft | 275 kts | 358° |
| 2026-04-29 22:34 | -37.89140 | -72.64395 | 20055 ft | 275 kts | 359° |
| 2026-04-29 22:35 | -37.87259 | -72.63940 | 20056 ft | 275 kts | 359° |
| 2026-04-29 22:35 | -37.85395 | -72.63489 | 20054 ft | 276 kts | 359° |
| 2026-04-29 22:35 | -37.83493 | -72.63027 | 20051 ft | 276 kts | 359° |
| 2026-04-29 22:35 | -37.81627 | -72.62577 | 20048 ft | 275 kts | 359° |
| 2026-04-29 22:36 | -37.79734 | -72.62122 | 20048 ft | 275 kts | 359° |
| 2026-04-29 22:36 | -37.77846 | -72.61664 | 20049 ft | 275 kts | 359° |
| 2026-04-29 22:36 | -37.75959 | -72.61211 | 20054 ft | 275 kts | 359° |
| 2026-04-29 22:36 | -37.74086 | -72.60757 | 20056 ft | 276 kts | 359° |
| 2026-04-29 22:37 | -37.72215 | -72.60307 | 20048 ft | 276 kts | 359° |
| 2026-04-29 22:37 | -37.70318 | -72.59850 | 20038 ft | 276 kts | 359° |
| 2026-04-29 22:37 | -37.68441 | -72.59399 | 20042 ft | 276 kts | 359° |
| 2026-04-29 22:37 | -37.66530 | -72.58939 | 20047 ft | 276 kts | 359° |
| 2026-04-29 22:38 | -37.64648 | -72.58485 | 20045 ft | 276 kts | 359° |
| 2026-04-29 22:38 | -37.62820 | -72.58404 | 20053 ft | 258 kts | 342° |
| 2026-04-29 22:38 | -37.60972 | -72.57978 | 20040 ft | 285 kts | 11° |
| 2026-04-29 22:38 | -37.59137 | -72.57054 | 20039 ft | 285 kts | 10° |
| 2026-04-29 22:39 | -37.57259 | -72.56221 | 20041 ft | 282 kts | 7° |
| 2026-04-29 22:39 | -37.55384 | -72.55494 | 20039 ft | 280 kts | 5° |
| 2026-04-29 22:39 | -37.53528 | -72.54826 | 20044 ft | 280 kts | 4° |
| 2026-04-29 22:39 | -37.51649 | -72.54176 | 20043 ft | 280 kts | 4° |
| 2026-04-29 22:40 | -37.49762 | -72.53531 | 20044 ft | 280 kts | 4° |
| 2026-04-29 22:40 | -37.47895 | -72.52902 | 20041 ft | 280 kts | 4° |
| 2026-04-29 22:40 | -37.46007 | -72.52264 | 20040 ft | 280 kts | 4° |
| 2026-04-29 22:40 | -37.44113 | -72.51628 | 20038 ft | 280 kts | 4° |
| 2026-04-29 22:41 | -37.42224 | -72.50994 | 20038 ft | 280 kts | 4° |
| 2026-04-29 22:41 | -37.40355 | -72.50367 | 20036 ft | 280 kts | 4° |
| 2026-04-29 22:41 | -37.38477 | -72.49737 | 20034 ft | 280 kts | 4° |
| 2026-04-29 22:41 | -37.36565 | -72.49096 | 20036 ft | 280 kts | 4° |
| 2026-04-29 22:42 | -37.34696 | -72.48467 | 20037 ft | 280 kts | 4° |
| 2026-04-29 22:42 | -37.32799 | -72.47832 | 20038 ft | 280 kts | 4° |
| 2026-04-29 22:42 | -37.30940 | -72.47210 | 20034 ft | 280 kts | 4° |
| 2026-04-29 22:42 | -37.29056 | -72.46580 | 20036 ft | 280 kts | 4° |
| 2026-04-29 22:43 | -37.27162 | -72.45946 | 20041 ft | 280 kts | 4° |
| 2026-04-29 22:43 | -37.25270 | -72.45316 | 20033 ft | 280 kts | 4° |
| 2026-04-29 22:43 | -37.23395 | -72.44688 | 20029 ft | 280 kts | 4° |
| 2026-04-29 22:43 | -37.21523 | -72.44063 | 20028 ft | 280 kts | 4° |
| 2026-04-29 22:44 | -37.19621 | -72.43426 | 20028 ft | 280 kts | 4° |
| 2026-04-29 22:44 | -37.17746 | -72.42802 | 20030 ft | 281 kts | 4° |
| 2026-04-29 22:44 | -37.15847 | -72.42167 | 20035 ft | 281 kts | 4° |
| 2026-04-29 22:44 | -37.13977 | -72.41546 | 20026 ft | 281 kts | 4° |
| 2026-04-29 22:45 | -37.12083 | -72.40915 | 20025 ft | 280 kts | 4° |
| 2026-04-29 22:45 | -37.10196 | -72.40286 | 20026 ft | 280 kts | 4° |
| 2026-04-29 22:45 | -37.08319 | -72.39660 | 20026 ft | 280 kts | 4° |
| 2026-04-29 22:45 | -37.06443 | -72.39037 | 20019 ft | 280 kts | 4° |
| 2026-04-29 22:46 | -37.04534 | -72.38403 | 20015 ft | 281 kts | 4° |
| 2026-04-29 22:46 | -37.02649 | -72.37775 | 20020 ft | 280 kts | 4° |
| 2026-04-29 22:46 | -37.00774 | -72.37153 | 20016 ft | 281 kts | 4° |
| 2026-04-29 22:46 | -36.98875 | -72.36522 | 20009 ft | 281 kts | 4° |
| 2026-04-29 22:47 | -36.96995 | -72.35899 | 20005 ft | 280 kts | 4° |
| 2026-04-29 22:47 | -36.95124 | -72.35279 | 20007 ft | 280 kts | 4° |
| 2026-04-29 22:47 | -36.93227 | -72.34649 | 20000 ft | 280 kts | 4° |
| 2026-04-29 22:47 | -36.91366 | -72.34034 | 19998 ft | 279 kts | 4° |
| 2026-04-29 22:48 | -36.89472 | -72.33405 | 19999 ft | 278 kts | 4° |
| 2026-04-29 22:48 | -36.87604 | -72.32787 | 19998 ft | 278 kts | 4° |
| 2026-04-29 22:48 | -36.85743 | -72.32172 | 19996 ft | 277 kts | 4° |
| 2026-04-29 22:48 | -36.83894 | -72.31561 | 19998 ft | 277 kts | 4° |
| 2026-04-29 22:49 | -36.82028 | -72.30943 | 19995 ft | 277 kts | 4° |
| 2026-04-29 22:49 | -36.80180 | -72.30334 | 19994 ft | 277 kts | 4° |
| 2026-04-29 22:49 | -36.78318 | -72.29720 | 19991 ft | 276 kts | 4° |
| 2026-04-29 22:49 | -36.76449 | -72.29102 | 19993 ft | 276 kts | 4° |
| 2026-04-29 22:50 | -36.74583 | -72.28489 | 19989 ft | 276 kts | 4° |
| 2026-04-29 22:50 | -36.72747 | -72.27884 | 19993 ft | 275 kts | 4° |
| 2026-04-29 22:50 | -36.70893 | -72.27273 | 19990 ft | 276 kts | 4° |
| 2026-04-29 22:50 | -36.69031 | -72.26659 | 19977 ft | 275 kts | 4° |
| 2026-04-29 22:51 | -36.67199 | -72.26056 | 19990 ft | 274 kts | 4° |
| 2026-04-29 22:51 | -36.65332 | -72.25442 | 19993 ft | 274 kts | 4° |
| 2026-04-29 22:51 | -36.61648 | -72.24232 | 19993 ft | 275 kts | 4° |
| 2026-04-29 22:52 | -36.59795 | -72.23622 | 19993 ft | 275 kts | 4° |
| 2026-04-29 22:52 | -36.57929 | -72.23010 | 19980 ft | 275 kts | 4° |
| 2026-04-29 22:52 | -36.56089 | -72.22407 | 19985 ft | 275 kts | 4° |
| 2026-04-29 22:52 | -36.54241 | -72.21801 | 19987 ft | 274 kts | 4° |
| 2026-04-29 22:53 | -36.52387 | -72.21192 | 19999 ft | 275 kts | 4° |
| 2026-04-29 22:53 | -36.50546 | -72.20589 | 19995 ft | 275 kts | 4° |
| 2026-04-29 22:53 | -36.48679 | -72.19978 | 20003 ft | 275 kts | 4° |
| 2026-04-29 22:53 | -36.46823 | -72.19372 | 19984 ft | 276 kts | 4° |
| 2026-04-29 22:54 | -36.44970 | -72.18765 | 19997 ft | 275 kts | 4° |
| 2026-04-29 22:54 | -36.43137 | -72.18166 | 20003 ft | 275 kts | 4° |
| 2026-04-29 22:54 | -36.41264 | -72.17552 | 19998 ft | 276 kts | 4° |
| 2026-04-29 22:54 | -36.39427 | -72.16953 | 19996 ft | 276 kts | 4° |
| 2026-04-29 22:55 | -36.37555 | -72.16341 | 19994 ft | 276 kts | 4° |
| 2026-04-29 22:55 | -36.35691 | -72.15735 | 19992 ft | 275 kts | 4° |
| 2026-04-29 22:55 | -36.33855 | -72.15134 | 19994 ft | 275 kts | 4° |
| 2026-04-29 22:55 | -36.32015 | -72.14534 | 19995 ft | 275 kts | 4° |
| 2026-04-29 22:56 | -36.30155 | -72.13928 | 19992 ft | 275 kts | 4° |
| 2026-04-29 22:56 | -36.28297 | -72.13324 | 19993 ft | 275 kts | 4° |
| 2026-04-29 22:56 | -36.26469 | -72.12729 | 19995 ft | 274 kts | 4° |
| 2026-04-29 22:56 | -36.24611 | -72.12415 | 20002 ft | 261 kts | 349° |
| 2026-04-29 22:57 | -36.22781 | -72.11868 | 19999 ft | 278 kts | 11° |
| 2026-04-29 22:57 | -36.20973 | -72.11031 | 19994 ft | 278 kts | 10° |
| 2026-04-29 22:57 | -36.19158 | -72.10267 | 19987 ft | 277 kts | 8° |
| 2026-04-29 22:57 | -36.17304 | -72.09547 | 19993 ft | 276 kts | 7° |
| 2026-04-29 22:58 | -36.15451 | -72.08862 | 19997 ft | 276 kts | 6° |
| 2026-04-29 22:58 | -36.13615 | -72.08202 | 19995 ft | 276 kts | 6° |
| 2026-04-29 22:58 | -36.11782 | -72.07548 | 19992 ft | 276 kts | 6° |
| 2026-04-29 22:58 | -36.09914 | -72.06887 | 19988 ft | 276 kts | 6° |
| 2026-04-29 22:59 | -36.08096 | -72.06242 | 19989 ft | 276 kts | 6° |
| 2026-04-29 22:59 | -36.06235 | -72.05585 | 19986 ft | 275 kts | 6° |
| 2026-04-29 22:59 | -36.04407 | -72.04939 | 19987 ft | 275 kts | 6° |
| 2026-04-29 22:59 | -36.02572 | -72.04293 | 19987 ft | 275 kts | 6° |
| 2026-04-29 23:00 | -36.00722 | -72.03638 | 19983 ft | 275 kts | 6° |
| 2026-04-29 23:00 | -35.98885 | -72.02990 | 19981 ft | 275 kts | 6° |
| 2026-04-29 23:00 | -35.97049 | -72.02341 | 19990 ft | 275 kts | 6° |
| 2026-04-29 23:00 | -35.95195 | -72.01688 | 19990 ft | 275 kts | 6° |
| 2026-04-29 23:01 | -35.93364 | -72.01047 | 19983 ft | 276 kts | 6° |
| 2026-04-29 23:01 | -35.91511 | -72.00395 | 19981 ft | 276 kts | 6° |
| 2026-04-29 23:01 | -35.89648 | -71.99738 | 19982 ft | 276 kts | 6° |
| 2026-04-29 23:01 | -35.87797 | -71.99086 | 19975 ft | 275 kts | 6° |
| 2026-04-29 23:02 | -35.85942 | -71.98433 | 19986 ft | 275 kts | 6° |
| 2026-04-29 23:02 | -35.84112 | -71.97793 | 19979 ft | 275 kts | 6° |
| 2026-04-29 23:02 | -35.82267 | -71.97144 | 19971 ft | 275 kts | 6° |
| 2026-04-29 23:02 | -35.80425 | -71.96496 | 19968 ft | 274 kts | 6° |
| 2026-04-29 23:03 | -35.78574 | -71.95847 | 19988 ft | 273 kts | 6° |
| 2026-04-29 23:03 | -35.76708 | -71.95195 | 19987 ft | 274 kts | 6° |
| 2026-04-29 23:03 | -35.74880 | -71.94554 | 19985 ft | 274 kts | 6° |
| 2026-04-29 23:03 | -35.73031 | -71.93908 | 19974 ft | 274 kts | 6° |
| 2026-04-29 23:04 | -35.71197 | -71.93265 | 19958 ft | 274 kts | 6° |
| 2026-04-29 23:04 | -35.69372 | -71.92624 | 19971 ft | 274 kts | 6° |
| 2026-04-29 23:04 | -35.67530 | -71.91980 | 19977 ft | 274 kts | 6° |
| 2026-04-29 23:04 | -35.65698 | -71.91338 | 19974 ft | 275 kts | 6° |
| 2026-04-29 23:05 | -35.63842 | -71.90691 | 19970 ft | 275 kts | 6° |
| 2026-04-29 23:05 | -35.62000 | -71.90048 | 19974 ft | 275 kts | 6° |
| 2026-04-29 23:05 | -35.60170 | -71.89411 | 19975 ft | 275 kts | 7° |
| 2026-04-29 23:05 | -35.58332 | -71.88768 | 19972 ft | 275 kts | 7° |
| 2026-04-29 23:06 | -35.56493 | -71.88126 | 19963 ft | 276 kts | 6° |
| 2026-04-29 23:06 | -35.54633 | -71.87478 | 19956 ft | 275 kts | 6° |
| 2026-04-29 23:06 | -35.52798 | -71.86838 | 19962 ft | 275 kts | 6° |
| 2026-04-29 23:06 | -35.50964 | -71.86200 | 19964 ft | 275 kts | 7° |
| 2026-04-29 23:07 | -35.49099 | -71.85551 | 19954 ft | 276 kts | 7° |
| 2026-04-29 23:07 | -35.47274 | -71.84917 | 19949 ft | 276 kts | 7° |
| 2026-04-29 23:07 | -35.45404 | -71.84264 | 19952 ft | 275 kts | 6° |
| 2026-04-29 23:07 | -35.43564 | -71.83625 | 19949 ft | 275 kts | 7° |
| 2026-04-29 23:08 | -35.41736 | -71.82989 | 19950 ft | 275 kts | 7° |
| 2026-04-29 23:08 | -35.39914 | -71.82129 | 19949 ft | 281 kts | 15° |
| 2026-04-29 23:08 | -35.38136 | -71.81145 | 19955 ft | 281 kts | 17° |
| 2026-04-29 23:08 | -35.36365 | -71.80149 | 19961 ft | 281 kts | 17° |
| 2026-04-29 23:09 | -35.34571 | -71.79144 | 19957 ft | 282 kts | 17° |
| 2026-04-29 23:09 | -35.32791 | -71.78153 | 19959 ft | 282 kts | 17° |
| 2026-04-29 23:09 | -35.31005 | -71.77156 | 19954 ft | 281 kts | 17° |
| 2026-04-29 23:09 | -35.29242 | -71.76176 | 19951 ft | 281 kts | 17° |
| 2026-04-29 23:10 | -35.27445 | -71.75176 | 19957 ft | 281 kts | 17° |
| 2026-04-29 23:10 | -35.25682 | -71.74197 | 19963 ft | 281 kts | 17° |
| 2026-04-29 23:10 | -35.23902 | -71.73207 | 19960 ft | 281 kts | 17° |
| 2026-04-29 23:10 | -35.22121 | -71.72219 | 19968 ft | 281 kts | 17° |
| 2026-04-29 23:11 | -35.20341 | -71.71233 | 19966 ft | 281 kts | 17° |
| 2026-04-29 23:11 | -35.18550 | -71.70236 | 19966 ft | 281 kts | 17° |
| 2026-04-29 23:11 | -35.16766 | -71.69248 | 19963 ft | 281 kts | 17° |
| 2026-04-29 23:11 | -35.14977 | -71.68256 | 19964 ft | 281 kts | 16° |
| 2026-04-29 23:12 | -35.13188 | -71.67265 | 19967 ft | 281 kts | 17° |
| 2026-04-29 23:12 | -35.11414 | -71.66284 | 19968 ft | 281 kts | 17° |
| 2026-04-29 23:12 | -35.09632 | -71.65298 | 19965 ft | 281 kts | 17° |
| 2026-04-29 23:12 | -35.07856 | -71.64317 | 19965 ft | 281 kts | 17° |
| 2026-04-29 23:13 | -35.06067 | -71.63325 | 19966 ft | 281 kts | 17° |
| 2026-04-29 23:13 | -35.04293 | -71.62345 | 19964 ft | 281 kts | 17° |
| 2026-04-29 23:13 | -35.02499 | -71.61352 | 19972 ft | 281 kts | 17° |
| 2026-04-29 23:13 | -35.00722 | -71.60374 | 19975 ft | 281 kts | 16° |
| 2026-04-29 23:14 | -34.98946 | -71.59393 | 19968 ft | 281 kts | 16° |
| 2026-04-29 23:14 | -34.97156 | -71.58408 | 19966 ft | 281 kts | 16° |
| 2026-04-29 23:14 | -34.95388 | -71.57435 | 19965 ft | 281 kts | 17° |
| 2026-04-29 23:14 | -34.93596 | -71.56445 | 19969 ft | 281 kts | 17° |
| 2026-04-29 23:15 | -34.91819 | -71.55465 | 19970 ft | 281 kts | 17° |
| 2026-04-29 23:15 | -34.90030 | -71.54483 | 19968 ft | 281 kts | 17° |
| 2026-04-29 23:15 | -34.88269 | -71.53514 | 19966 ft | 281 kts | 17° |
| 2026-04-29 23:15 | -34.86489 | -71.52535 | 19966 ft | 281 kts | 17° |
| 2026-04-29 23:16 | -34.84704 | -71.51553 | 19965 ft | 280 kts | 17° |
| 2026-04-29 23:16 | -34.82938 | -71.50582 | 19974 ft | 280 kts | 17° |
| 2026-04-29 23:16 | -34.81149 | -71.49600 | 19979 ft | 280 kts | 17° |
| 2026-04-29 23:16 | -34.79374 | -71.48626 | 19973 ft | 280 kts | 17° |
| 2026-04-29 23:17 | -34.77613 | -71.47662 | 19976 ft | 279 kts | 17° |
| 2026-04-29 23:17 | -34.75832 | -71.46683 | 19980 ft | 279 kts | 17° |
| 2026-04-29 23:17 | -34.74061 | -71.45713 | 19976 ft | 279 kts | 17° |
| 2026-04-29 23:17 | -34.72281 | -71.44737 | 19975 ft | 279 kts | 17° |
| 2026-04-29 23:18 | -34.70525 | -71.43775 | 19975 ft | 279 kts | 17° |
| 2026-04-29 23:18 | -34.68758 | -71.42809 | 19973 ft | 279 kts | 17° |
| 2026-04-29 23:18 | -34.66991 | -71.41841 | 19971 ft | 279 kts | 17° |
| 2026-04-29 23:18 | -34.65200 | -71.40932 | 19975 ft | 273 kts | 7° |
| 2026-04-29 23:19 | -34.63363 | -71.40537 | 19973 ft | 267 kts | 358° |
| 2026-04-29 23:19 | -34.61528 | -71.40294 | 19968 ft | 266 kts | 357° |
| 2026-04-29 23:19 | -34.59665 | -71.40063 | 19964 ft | 266 kts | 357° |
| 2026-04-29 23:19 | -34.57840 | -71.39831 | 19964 ft | 266 kts | 358° |
| 2026-04-29 23:20 | -34.55978 | -71.39593 | 19969 ft | 266 kts | 358° |
| 2026-04-29 23:20 | -34.54149 | -71.39353 | 19968 ft | 267 kts | 358° |
| 2026-04-29 23:20 | -34.52290 | -71.39114 | 19959 ft | 266 kts | 358° |
| 2026-04-29 23:20 | -34.50450 | -71.38873 | 19956 ft | 266 kts | 358° |
| 2026-04-29 23:21 | -34.48601 | -71.38634 | 19962 ft | 265 kts | 358° |
| 2026-04-29 23:21 | -34.46783 | -71.38396 | 19961 ft | 265 kts | 358° |
| 2026-04-29 23:21 | -34.44933 | -71.38155 | 19972 ft | 265 kts | 358° |
| 2026-04-29 23:21 | -34.43113 | -71.37917 | 19968 ft | 266 kts | 358° |
| 2026-04-29 23:22 | -34.41277 | -71.37679 | 19957 ft | 266 kts | 358° |
| 2026-04-29 23:22 | -34.39418 | -71.37438 | 19964 ft | 266 kts | 358° |
| 2026-04-29 23:22 | -34.37590 | -71.37202 | 19965 ft | 266 kts | 358° |
| 2026-04-29 23:22 | -34.35734 | -71.36961 | 19964 ft | 266 kts | 358° |
| 2026-04-29 23:23 | -34.33911 | -71.36723 | 19959 ft | 266 kts | 358° |
| 2026-04-29 23:23 | -34.32066 | -71.36484 | 19964 ft | 265 kts | 358° |
| 2026-04-29 23:23 | -34.30238 | -71.36247 | 19969 ft | 265 kts | 358° |
| 2026-04-29 23:23 | -34.28407 | -71.36008 | 19964 ft | 266 kts | 358° |
| 2026-04-29 23:24 | -34.26570 | -71.35773 | 19961 ft | 265 kts | 358° |
| 2026-04-29 23:24 | -34.24722 | -71.35533 | 19965 ft | 265 kts | 358° |
| 2026-04-29 23:24 | -34.22901 | -71.35297 | 19969 ft | 265 kts | 358° |
| 2026-04-29 23:24 | -34.21051 | -71.35056 | 19964 ft | 265 kts | 358° |
| 2026-04-29 23:25 | -34.19224 | -71.34823 | 19956 ft | 265 kts | 358° |
| 2026-04-29 23:25 | -34.17388 | -71.34585 | 19954 ft | 264 kts | 358° |
| 2026-04-29 23:25 | -34.15570 | -71.34349 | 19955 ft | 264 kts | 358° |
| 2026-04-29 23:25 | -34.13749 | -71.34113 | 19953 ft | 264 kts | 358° |
| 2026-04-29 23:26 | -34.11917 | -71.33878 | 19954 ft | 263 kts | 358° |
| 2026-04-29 23:26 | -34.10094 | -71.33642 | 19951 ft | 263 kts | 358° |
| 2026-04-29 23:26 | -34.08255 | -71.33405 | 19954 ft | 263 kts | 358° |
| 2026-04-29 23:26 | -34.06451 | -71.33170 | 19949 ft | 263 kts | 358° |
| 2026-04-29 23:27 | -34.04622 | -71.32935 | 19955 ft | 262 kts | 358° |
| 2026-04-29 23:27 | -34.02806 | -71.32702 | 19961 ft | 262 kts | 358° |
| 2026-04-29 23:27 | -34.00995 | -71.32469 | 19956 ft | 263 kts | 358° |
| 2026-04-29 23:27 | -33.99186 | -71.32237 | 19949 ft | 263 kts | 358° |
| 2026-04-29 23:28 | -33.97373 | -71.32004 | 19954 ft | 262 kts | 358° |
| 2026-04-29 23:28 | -33.95547 | -71.31769 | 19953 ft | 263 kts | 358° |
| 2026-04-29 23:28 | -33.93734 | -71.31535 | 19947 ft | 263 kts | 358° |
| 2026-04-29 23:28 | -33.91903 | -71.31299 | 19944 ft | 263 kts | 358° |
| 2026-04-29 23:29 | -33.90084 | -71.31067 | 19935 ft | 262 kts | 358° |
| 2026-04-29 23:29 | -33.88276 | -71.30833 | 19939 ft | 262 kts | 358° |
| 2026-04-29 23:29 | -33.86459 | -71.30600 | 19951 ft | 262 kts | 358° |
| 2026-04-29 23:29 | -33.84642 | -71.30367 | 19944 ft | 263 kts | 358° |
| 2026-04-29 23:30 | -33.82834 | -71.30136 | 19932 ft | 262 kts | 358° |
| 2026-04-29 23:30 | -33.81014 | -71.29903 | 19926 ft | 262 kts | 358° |
| 2026-04-29 23:30 | -33.79186 | -71.29670 | 19948 ft | 262 kts | 358° |
| 2026-04-29 23:30 | -33.77377 | -71.29438 | 19928 ft | 262 kts | 358° |
| 2026-04-29 23:31 | -33.75571 | -71.29206 | 19944 ft | 262 kts | 358° |
| 2026-04-29 23:31 | -33.73749 | -71.28973 | 19924 ft | 262 kts | 358° |
| 2026-04-29 23:31 | -33.71948 | -71.28742 | 19932 ft | 261 kts | 358° |
| 2026-04-29 23:31 | -33.70134 | -71.28510 | 19938 ft | 261 kts | 358° |
| 2026-04-29 23:32 | -33.68320 | -71.28280 | 19953 ft | 262 kts | 358° |
| 2026-04-29 23:32 | -33.66514 | -71.28049 | 19921 ft | 263 kts | 358° |
| 2026-04-29 23:32 | -33.64681 | -71.27814 | 19931 ft | 262 kts | 358° |
| 2026-04-29 23:32 | -33.62868 | -71.27582 | 19924 ft | 262 kts | 358° |
| 2026-04-29 23:33 | -33.61076 | -71.27353 | 19916 ft | 261 kts | 358° |
| 2026-04-29 23:33 | -33.59251 | -71.27120 | 19930 ft | 260 kts | 358° |
| 2026-04-29 23:33 | -33.57451 | -71.26891 | 19938 ft | 261 kts | 359° |
| 2026-04-29 23:33 | -33.55644 | -71.26661 | 19949 ft | 262 kts | 358° |
| 2026-04-29 23:34 | -33.53831 | -71.26434 | 19924 ft | 263 kts | 359° |
| 2026-04-29 23:34 | -33.52025 | -71.26203 | 19927 ft | 262 kts | 359° |
| 2026-04-29 23:34 | -33.50208 | -71.25970 | 19915 ft | 262 kts | 359° |
| 2026-04-29 23:34 | -33.48402 | -71.25736 | 19922 ft | 260 kts | 358° |
| 2026-04-29 23:35 | -33.46584 | -71.25506 | 19930 ft | 260 kts | 358° |
| 2026-04-29 23:35 | -33.44789 | -71.25281 | 19931 ft | 260 kts | 359° |
| 2026-04-29 23:35 | -33.43002 | -71.25050 | 19942 ft | 260 kts | 358° |
| 2026-04-29 23:35 | -33.41179 | -71.24822 | 19938 ft | 261 kts | 358° |
| 2026-04-29 23:36 | -33.39386 | -71.24592 | 19942 ft | 261 kts | 358° |
| 2026-04-29 23:36 | -33.37574 | -71.24365 | 19942 ft | 261 kts | 359° |
| 2026-04-29 23:36 | -33.35757 | -71.24132 | 19953 ft | 261 kts | 359° |
| 2026-04-29 23:36 | -33.33947 | -71.23904 | 19956 ft | 261 kts | 359° |
| 2026-04-29 23:37 | -33.32156 | -71.23676 | 19959 ft | 261 kts | 359° |
| 2026-04-29 23:37 | -33.30350 | -71.23447 | 19961 ft | 261 kts | 358° |
| 2026-04-29 23:37 | -33.28538 | -71.23216 | 19964 ft | 261 kts | 359° |
| 2026-04-29 23:37 | -33.26731 | -71.22990 | 19974 ft | 261 kts | 359° |
| 2026-04-29 23:38 | -33.24935 | -71.22761 | 19979 ft | 261 kts | 359° |
| 2026-04-29 23:38 | -33.23106 | -71.22530 | 19976 ft | 261 kts | 359° |
| 2026-04-29 23:38 | -33.21312 | -71.22304 | 19968 ft | 261 kts | 359° |
| 2026-04-29 23:38 | -33.19515 | -71.22076 | 19969 ft | 261 kts | 359° |
| 2026-04-29 23:39 | -33.17689 | -71.21847 | 19968 ft | 261 kts | 358° |
| 2026-04-29 23:39 | -33.15883 | -71.21616 | 19968 ft | 261 kts | 359° |
| 2026-04-29 23:39 | -33.14091 | -71.21392 | 19961 ft | 261 kts | 359° |
| 2026-04-29 23:39 | -33.12272 | -71.21162 | 19955 ft | 261 kts | 359° |
| 2026-04-29 23:40 | -33.10463 | -71.20933 | 19965 ft | 261 kts | 359° |
| 2026-04-29 23:40 | -33.08643 | -71.20704 | 19966 ft | 262 kts | 359° |
| 2026-04-29 23:40 | -33.06774 | -71.20467 | 19945 ft | 263 kts | 359° |
| 2026-04-29 23:40 | -33.04954 | -71.20239 | 19946 ft | 262 kts | 359° |
| 2026-04-29 23:41 | -33.03161 | -71.20013 | 19947 ft | 261 kts | 359° |
| 2026-04-29 23:41 | -33.01345 | -71.19785 | 19942 ft | 261 kts | 359° |
| 2026-04-29 23:41 | -32.99550 | -71.19557 | 19946 ft | 261 kts | 359° |
| 2026-04-29 23:41 | -32.97739 | -71.19332 | 19951 ft | 261 kts | 359° |
| 2026-04-29 23:42 | -32.95940 | -71.19107 | 19938 ft | 260 kts | 359° |
| 2026-04-29 23:42 | -32.94144 | -71.18998 | 19976 ft | 257 kts | 353° |
| 2026-04-29 23:42 | -32.92329 | -71.19029 | 19939 ft | 257 kts | 352° |
| 2026-04-29 23:42 | -32.90541 | -71.19073 | 19950 ft | 257 kts | 352° |
| 2026-04-29 23:43 | -32.88749 | -71.19111 | 19938 ft | 257 kts | 352° |
| 2026-04-29 23:43 | -32.86962 | -71.19149 | 19956 ft | 255 kts | 352° |
| 2026-04-29 23:43 | -32.85181 | -71.19188 | 19963 ft | 256 kts | 352° |
| 2026-04-29 23:43 | -32.83385 | -71.19226 | 19952 ft | 257 kts | 352° |
| 2026-04-29 23:44 | -32.81614 | -71.19261 | 19951 ft | 257 kts | 352° |
| 2026-04-29 23:44 | -32.79823 | -71.19292 | 19961 ft | 256 kts | 352° |
| 2026-04-29 23:44 | -32.78046 | -71.19324 | 19973 ft | 257 kts | 352° |
| 2026-04-29 23:44 | -32.76249 | -71.19359 | 19959 ft | 257 kts | 352° |
| 2026-04-29 23:45 | -32.74465 | -71.19392 | 19964 ft | 256 kts | 352° |
| 2026-04-29 23:45 | -32.72695 | -71.19424 | 19964 ft | 256 kts | 352° |
| 2026-04-29 23:45 | -32.70897 | -71.19457 | 19964 ft | 255 kts | 353° |
| 2026-04-29 23:45 | -32.69113 | -71.19488 | 19967 ft | 255 kts | 352° |
| 2026-04-29 23:46 | -32.67348 | -71.19521 | 19971 ft | 256 kts | 352° |
| 2026-04-29 23:46 | -32.65578 | -71.19554 | 19965 ft | 256 kts | 352° |
| 2026-04-29 23:46 | -32.63776 | -71.19589 | 19961 ft | 256 kts | 352° |
| 2026-04-29 23:46 | -32.61991 | -71.19621 | 19962 ft | 257 kts | 353° |
| 2026-04-29 23:47 | -32.60197 | -71.19654 | 19957 ft | 257 kts | 352° |
| 2026-04-29 23:47 | -32.58427 | -71.19687 | 19952 ft | 257 kts | 353° |
| 2026-04-29 23:47 | -32.56630 | -71.19717 | 19947 ft | 257 kts | 352° |
| 2026-04-29 23:47 | -32.54837 | -71.19751 | 19959 ft | 257 kts | 352° |
| 2026-04-29 23:48 | -32.53058 | -71.19783 | 19946 ft | 258 kts | 352° |
| 2026-04-29 23:48 | -32.51266 | -71.19815 | 19937 ft | 257 kts | 352° |
| 2026-04-29 23:48 | -32.49457 | -71.19849 | 19938 ft | 257 kts | 352° |
| 2026-04-29 23:48 | -32.47675 | -71.19881 | 19946 ft | 257 kts | 352° |
| 2026-04-29 23:49 | -32.45898 | -71.19913 | 19940 ft | 257 kts | 352° |
| 2026-04-29 23:49 | -32.44105 | -71.19945 | 19937 ft | 256 kts | 352° |
| 2026-04-29 23:49 | -32.42321 | -71.19979 | 19950 ft | 257 kts | 352° |
| 2026-04-29 23:49 | -32.40517 | -71.20012 | 19948 ft | 257 kts | 352° |
| 2026-04-29 23:50 | -32.38734 | -71.20044 | 19940 ft | 257 kts | 352° |
| 2026-04-29 23:50 | -32.36952 | -71.20075 | 19943 ft | 256 kts | 352° |
| 2026-04-29 23:50 | -32.33385 | -71.20139 | 19952 ft | 256 kts | 352° |
| 2026-04-29 23:51 | -32.31588 | -71.20173 | 19947 ft | 256 kts | 352° |
| 2026-04-29 23:51 | -32.29819 | -71.20207 | 19951 ft | 256 kts | 352° |
| 2026-04-29 23:51 | -32.28038 | -71.20239 | 19951 ft | 256 kts | 352° |
| 2026-04-29 23:51 | -32.26250 | -71.20271 | 19949 ft | 257 kts | 352° |
| 2026-04-29 23:52 | -32.24462 | -71.20303 | 19960 ft | 256 kts | 352° |
| 2026-04-29 23:52 | -32.22680 | -71.20335 | 19965 ft | 256 kts | 352° |
| 2026-04-29 23:52 | -32.20888 | -71.20368 | 19975 ft | 256 kts | 353° |
| 2026-04-29 23:52 | -32.19122 | -71.20400 | 19988 ft | 255 kts | 353° |
| 2026-04-29 23:53 | -32.17324 | -71.20431 | 20004 ft | 255 kts | 353° |
| 2026-04-29 23:53 | -32.15565 | -71.20464 | 20016 ft | 256 kts | 352° |
| 2026-04-29 23:53 | -32.13764 | -71.20496 | 20016 ft | 256 kts | 352° |
| 2026-04-29 23:53 | -32.11990 | -71.20529 | 20029 ft | 256 kts | 353° |
| 2026-04-29 23:54 | -32.10210 | -71.20561 | 20040 ft | 255 kts | 353° |
| 2026-04-29 23:54 | -32.08442 | -71.20592 | 20050 ft | 256 kts | 353° |
| 2026-04-29 23:54 | -32.06667 | -71.20624 | 20061 ft | 256 kts | 353° |
| 2026-04-29 23:54 | -32.04877 | -71.20657 | 20078 ft | 256 kts | 353° |
| 2026-04-29 23:55 | -32.03085 | -71.20689 | 20084 ft | 256 kts | 352° |
| 2026-04-29 23:55 | -32.01311 | -71.20722 | 20099 ft | 256 kts | 353° |
| 2026-04-29 23:55 | -31.99520 | -71.20753 | 20108 ft | 256 kts | 352° |
| 2026-04-29 23:55 | -31.97736 | -71.20785 | 20108 ft | 256 kts | 353° |
| 2026-04-29 23:56 | -31.95948 | -71.20818 | 20102 ft | 257 kts | 353° |
| 2026-04-29 23:56 | -31.94154 | -71.20853 | 20088 ft | 257 kts | 353° |
| 2026-04-29 23:56 | -31.92386 | -71.20884 | 20087 ft | 257 kts | 353° |
| 2026-04-29 23:56 | -31.90594 | -71.20915 | 20077 ft | 257 kts | 353° |
| 2026-04-29 23:57 | -31.88805 | -71.20947 | 20070 ft | 257 kts | 353° |
| 2026-04-29 23:57 | -31.87012 | -71.20979 | 20055 ft | 257 kts | 353° |
| 2026-04-29 23:57 | -31.85217 | -71.21011 | 20053 ft | 257 kts | 353° |
| 2026-04-29 23:57 | -31.83441 | -71.21043 | 20047 ft | 257 kts | 353° |
| 2026-04-29 23:58 | -31.81654 | -71.21075 | 20042 ft | 256 kts | 353° |
| 2026-04-29 23:58 | -31.79847 | -71.21107 | 20027 ft | 256 kts | 352° |
| 2026-04-29 23:58 | -31.78060 | -71.21129 | 20022 ft | 257 kts | 355° |
| 2026-04-29 23:58 | -31.76283 | -71.21040 | 20017 ft | 258 kts | 357° |
| 2026-04-29 23:59 | -31.74489 | -71.20924 | 20016 ft | 258 kts | 357° |
| 2026-04-29 23:59 | -31.72678 | -71.20814 | 20018 ft | 258 kts | 356° |
| 2026-04-29 23:59 | -31.70887 | -71.20701 | 20012 ft | 258 kts | 357° |
| 2026-04-29 23:59 | -31.69068 | -71.20590 | 20012 ft | 257 kts | 357° |
| 2026-04-30 00:00 | -31.67260 | -71.20481 | 20011 ft | 257 kts | 357° |
| 2026-04-30 00:00 | -31.65462 | -71.20370 | 20017 ft | 257 kts | 357° |
| 2026-04-30 00:00 | -31.63677 | -71.20263 | 20015 ft | 256 kts | 357° |
| 2026-04-30 00:00 | -31.61888 | -71.20155 | 20019 ft | 256 kts | 357° |
| 2026-04-30 00:01 | -31.60121 | -71.20046 | 20021 ft | 256 kts | 357° |
| 2026-04-30 00:01 | -31.58332 | -71.19936 | 20031 ft | 256 kts | 357° |
| 2026-04-30 00:01 | -31.56556 | -71.19830 | 20032 ft | 256 kts | 357° |
| 2026-04-30 00:01 | -31.54770 | -71.19722 | 20030 ft | 256 kts | 357° |
| 2026-04-30 00:02 | -31.52995 | -71.19615 | 20029 ft | 256 kts | 357° |
| 2026-04-30 00:02 | -31.51206 | -71.19507 | 20034 ft | 255 kts | 357° |
| 2026-04-30 00:02 | -31.49444 | -71.19400 | 20036 ft | 256 kts | 357° |
| 2026-04-30 00:02 | -31.47652 | -71.19293 | 20041 ft | 256 kts | 357° |
| 2026-04-30 00:03 | -31.45883 | -71.19184 | 20041 ft | 256 kts | 357° |
| 2026-04-30 00:03 | -31.44096 | -71.19077 | 20040 ft | 256 kts | 357° |
| 2026-04-30 00:03 | -31.42310 | -71.18968 | 20046 ft | 256 kts | 357° |
| 2026-04-30 00:03 | -31.40535 | -71.18861 | 20047 ft | 256 kts | 357° |
| 2026-04-30 00:04 | -31.38752 | -71.18753 | 20048 ft | 256 kts | 357° |
| 2026-04-30 00:04 | -31.36961 | -71.18646 | 20048 ft | 257 kts | 357° |
| 2026-04-30 00:04 | -31.35175 | -71.18539 | 20048 ft | 257 kts | 357° |
| 2026-04-30 00:04 | -31.33386 | -71.18430 | 20042 ft | 257 kts | 357° |
| 2026-04-30 00:05 | -31.31593 | -71.18322 | 20042 ft | 257 kts | 357° |
| 2026-04-30 00:05 | -31.29810 | -71.18214 | 20045 ft | 257 kts | 357° |
| 2026-04-30 00:05 | -31.28013 | -71.18107 | 20041 ft | 257 kts | 357° |
| 2026-04-30 00:05 | -31.26224 | -71.17999 | 20041 ft | 257 kts | 357° |
| 2026-04-30 00:06 | -31.24449 | -71.17893 | 20040 ft | 257 kts | 357° |
| 2026-04-30 00:06 | -31.22655 | -71.17783 | 20041 ft | 257 kts | 357° |
| 2026-04-30 00:06 | -31.20880 | -71.17678 | 19989 ft | 259 kts | 357° |
| 2026-04-30 00:06 | -31.19036 | -71.17570 | 19742 ft | 267 kts | 357° |
| 2026-04-30 00:07 | -31.17166 | -71.17461 | 19502 ft | 273 kts | 358° |
| 2026-04-30 00:07 | -31.15241 | -71.17346 | 19253 ft | 277 kts | 358° |
| 2026-04-30 00:07 | -31.13293 | -71.17229 | 19006 ft | 280 kts | 358° |
| 2026-04-30 00:07 | -31.11344 | -71.17110 | 18763 ft | 282 kts | 358° |
| 2026-04-30 00:08 | -31.09382 | -71.16990 | 18512 ft | 283 kts | 358° |
| 2026-04-30 00:08 | -31.07404 | -71.16871 | 18268 ft | 283 kts | 358° |
| 2026-04-30 00:08 | -31.05440 | -71.16753 | 18024 ft | 284 kts | 358° |
| 2026-04-30 00:08 | -31.03461 | -71.16632 | 17779 ft | 283 kts | 359° |
| 2026-04-30 00:09 | -31.01510 | -71.16516 | 17537 ft | 283 kts | 358° |
| 2026-04-30 00:09 | -30.99536 | -71.16399 | 17293 ft | 283 kts | 359° |
| 2026-04-30 00:09 | -30.97559 | -71.16281 | 17049 ft | 282 kts | 359° |
| 2026-04-30 00:09 | -30.95612 | -71.16256 | 16805 ft | 278 kts | 348° |
| 2026-04-30 00:10 | -30.93705 | -71.16514 | 16555 ft | 281 kts | 1° |
| 2026-04-30 00:10 | -30.91780 | -71.16210 | 16322 ft | 281 kts | 3° |
| 2026-04-30 00:10 | -30.89828 | -71.15948 | 16080 ft | 280 kts | 2° |
| 2026-04-30 00:10 | -30.87895 | -71.15757 | 15838 ft | 279 kts | 1° |
| 2026-04-30 00:11 | -30.85952 | -71.15604 | 15602 ft | 278 kts | 0° |
| 2026-04-30 00:11 | -30.84028 | -71.15471 | 15365 ft | 277 kts | 0° |
| 2026-04-30 00:11 | -30.82098 | -71.15346 | 15135 ft | 276 kts | 0° |
| 2026-04-30 00:11 | -30.80184 | -71.15228 | 14880 ft | 276 kts | 0° |
| 2026-04-30 00:12 | -30.78260 | -71.15109 | 14648 ft | 275 kts | 0° |
| 2026-04-30 00:12 | -30.76348 | -71.14994 | 14413 ft | 274 kts | 0° |
| 2026-04-30 00:12 | -30.74440 | -71.14881 | 14169 ft | 274 kts | 0° |
| 2026-04-30 00:12 | -30.72557 | -71.14768 | 13944 ft | 273 kts | 0° |
| 2026-04-30 00:13 | -30.70658 | -71.14655 | 13730 ft | 273 kts | 1° |
| 2026-04-30 00:13 | -30.68755 | -71.14542 | 13491 ft | 273 kts | 1° |
| 2026-04-30 00:13 | -30.66852 | -71.14428 | 13240 ft | 272 kts | 1° |
| 2026-04-30 00:13 | -30.64966 | -71.14316 | 13009 ft | 272 kts | 1° |
| 2026-04-30 00:14 | -30.63079 | -71.14202 | 12772 ft | 271 kts | 1° |
| 2026-04-30 00:14 | -30.61179 | -71.14088 | 12538 ft | 271 kts | 1° |
| 2026-04-30 00:14 | -30.59305 | -71.13975 | 12303 ft | 270 kts | 1° |
| 2026-04-30 00:14 | -30.57434 | -71.13864 | 12061 ft | 270 kts | 1° |
| 2026-04-30 00:15 | -30.55553 | -71.13751 | 11834 ft | 270 kts | 2° |
| 2026-04-30 00:15 | -30.53676 | -71.13641 | 11603 ft | 270 kts | 2° |
| 2026-04-30 00:15 | -30.51809 | -71.13532 | 11370 ft | 266 kts | 2° |
| 2026-04-30 00:15 | -30.49980 | -71.13414 | 11123 ft | 259 kts | 1° |
| 2026-04-30 00:16 | -30.48192 | -71.13308 | 10900 ft | 255 kts | 2° |
| 2026-04-30 00:16 | -30.46423 | -71.13206 | 10663 ft | 252 kts | 2° |
| 2026-04-30 00:16 | -30.44674 | -71.13102 | 10433 ft | 250 kts | 2° |
| 2026-04-30 00:16 | -30.42945 | -71.13000 | 10197 ft | 249 kts | 2° |
| 2026-04-30 00:17 | -30.41218 | -71.12899 | 9960 ft | 248 kts | 2° |
| 2026-04-30 00:17 | -30.39497 | -71.12801 | 9721 ft | 247 kts | 2° |
| 2026-04-30 00:17 | -30.37778 | -71.12704 | 9484 ft | 246 kts | 2° |
| 2026-04-30 00:17 | -30.36059 | -71.12613 | 9239 ft | 246 kts | 2° |
| 2026-04-30 00:18 | -30.34362 | -71.12528 | 9004 ft | 246 kts | 2° |
| 2026-04-30 00:18 | -30.32638 | -71.12431 | 8768 ft | 246 kts | 2° |
| 2026-04-30 00:18 | -30.30924 | -71.12340 | 8530 ft | 247 kts | 2° |
| 2026-04-30 00:18 | -30.29207 | -71.12248 | 8294 ft | 247 kts | 2° |
| 2026-04-30 00:19 | -30.27473 | -71.12161 | 8054 ft | 248 kts | 2° |
| 2026-04-30 00:19 | -30.25756 | -71.12080 | 7817 ft | 248 kts | 2° |
| 2026-04-30 00:19 | -30.24034 | -71.12006 | 7592 ft | 248 kts | 2° |
| 2026-04-30 00:19 | -30.22386 | -71.11576 | 7511 ft | 242 kts | 30° |
| 2026-04-30 00:20 | -30.21341 | -71.10095 | 7403 ft | 244 kts | 66° |
| 2026-04-30 00:20 | -30.20823 | -71.08200 | 7163 ft | 248 kts | 66° |
| 2026-04-30 00:20 | -30.19968 | -71.06477 | 6923 ft | 249 kts | 55° |
| 2026-04-30 00:20 | -30.18925 | -71.04902 | 6675 ft | 250 kts | 50° |
| 2026-04-30 00:21 | -30.17791 | -71.03364 | 6443 ft | 251 kts | 48° |
| 2026-04-30 00:21 | -30.16638 | -71.01849 | 6204 ft | 252 kts | 48° |
| 2026-04-30 00:21 | -30.15462 | -71.00316 | 5965 ft | 253 kts | 48° |
| 2026-04-30 00:21 | -30.14292 | -70.98794 | 5712 ft | 251 kts | 48° |
| 2026-04-30 00:22 | -30.13185 | -70.97348 | 5651 ft | 234 kts | 46° |
| 2026-04-30 00:22 | -30.11895 | -70.96300 | 5635 ft | 220 kts | 28° |
| 2026-04-30 00:22 | -30.10552 | -70.95517 | 5626 ft | 211 kts | 26° |
| 2026-04-30 00:22 | -30.09235 | -70.94782 | 5625 ft | 207 kts | 26° |
| 2026-04-30 00:23 | -30.07939 | -70.94056 | 5628 ft | 205 kts | 26° |
| 2026-04-30 00:23 | -30.06667 | -70.93340 | 5609 ft | 204 kts | 26° |
| 2026-04-30 00:23 | -30.05380 | -70.92630 | 5627 ft | 202 kts | 21° |
| 2026-04-30 00:23 | -30.03998 | -70.92680 | 5533 ft | 209 kts | 336° |
| 2026-04-30 00:24 | -30.02919 | -70.93822 | 5310 ft | 219 kts | 303° |
| 2026-04-30 00:24 | -30.02167 | -70.95369 | 5041 ft | 225 kts | 297° |
| 2026-04-30 00:24 | -30.01467 | -70.96997 | 4881 ft | 226 kts | 296° |
| 2026-04-30 00:24 | -30.00771 | -70.98634 | 4719 ft | 228 kts | 296° |
| 2026-04-30 00:25 | -30.00068 | -71.00279 | 4497 ft | 230 kts | 297° |
| 2026-04-30 00:25 | -29.99357 | -71.01949 | 4262 ft | 232 kts | 297° |
| 2026-04-30 00:25 | -29.98652 | -71.03610 | 4088 ft | 230 kts | 296° |
| 2026-04-30 00:25 | -29.97944 | -71.05267 | 3775 ft | 235 kts | 296° |
| 2026-04-30 00:26 | -29.97221 | -71.06955 | 3594 ft | 232 kts | 297° |
| 2026-04-30 00:26 | -29.96516 | -71.08596 | 3582 ft | 224 kts | 296° |
| 2026-04-30 00:26 | -29.95833 | -71.10184 | 3500 ft | 223 kts | 297° |
| 2026-04-30 00:26 | -29.95176 | -71.11702 | 3920 ft | 194 kts | 298° |
| 2026-04-30 00:27 | -29.94577 | -71.13053 | 3371 ft | 204 kts | 301° |
| 2026-04-30 00:27 | -29.93904 | -71.14466 | 3074 ft | 174 kts | 296° |
| 2026-04-30 00:27 | -29.93471 | -71.15601 | 3118 ft | 135 kts | 293° |
| 2026-04-30 00:27 | -29.93125 | -71.16455 | 2895 ft | 111 kts | 298° |
| 2026-04-30 00:28 | -29.92805 | -71.17217 | 2418 ft | 113 kts | 295° |
| 2026-04-30 00:28 | -29.92458 | -71.18061 | 1552 ft | 135 kts | 293° |
| 2026-04-30 00:28 | -29.92072 | -71.18973 | 705 ft | 120 kts | 296° |
| 2026-04-30 00:28 | -29.91761 | -71.19685 | 485 ft | 77 kts | 291° |
| 2026-04-30 00:29 | -29.91622 | -71.20016 | 464 ft | 31 kts | 294° |
| 2026-04-30 00:29 | -29.91564 | -71.20172 | 460 ft | 16 kts | 299° |
| 2026-04-30 00:29 | -29.91540 | -71.20251 | 460 ft | 9 kts | 262° |
| 2026-04-30 00:29 | -29.91601 | -71.20302 | 460 ft | 13 kts | 185° |
| 2026-04-30 00:30 | -29.91666 | -71.20248 | 461 ft | 13 kts | 116° |
| 2026-04-30 00:30 | -29.91717 | -71.20212 | 463 ft | 5 kts | 213° |
| 2026-04-30 00:30 | -29.91729 | -71.20219 | 463 ft | 0 kts | 205° |